« Back
NWS Peachtree City, Ga » Text Product » MCN Terminal Aerodrome Forecast


Printer-friendly Version
Current Version              Previous Versions:   1  2  3  4  5  6  7  8  9  

Terminal Aerodrome Forecast

083
FTUS42 KFFC 190300 AAB
TAFMCN
TAF AMD
KMCN 190331Z 1904/1924 03014G20KT 3SM -SHRA BR BKN007 OVC015
     FM190600 03017G27KT 4SM -SHRA BR OVC006
     FM191200 03015G24KT 6SM -RA BKN012
     FM191900 04013G22KT P6SM BKN021=



USA.gov is the U.S. government's official web portal to all federal, state and local government web resources and services.